Terminal Aerodrome Forecast
Issued by NWS

Home | Current Version | Previous Version | Text Only | Print | Product List | Glossary On
Versions: 1 2 3 4 5 6 7 8 9 10 11 12 13 14 15
000
FTAK31 PAJN 191732
TAFAKT
TAF
PAKT 191732Z 1918/2018 14007KT P6SM -SHRA BKN015 OVC025
      TEMPO 1918/1920 SCT015 OVC045
     FM192000 12010KT P6SM -SHRA SCT025 OVC040
      TEMPO 1920/1923 4SM -SHRA BR BKN025 OVC040
     FM200100 14009KT 4SM -SHRA BR BKN015 OVC025
     FM200900 14009KT 3SM -SHRA BR BKN010 OVC025
      AMD LTD TO CLD VIS AND WIND 2006/2015=

USA.gov is the U.S. government's official web portal to all federal, state and local government web resources and services.